sensor_id;sensor_type;location;lat;lon;timestamp;P1;durP1;ratioP1;P2;durP2;ratioP2
68192;SDS011;55012;47.562;18.414;2023-04-09T00:01:02;35.25;;;17.17;;
68192;SDS011;55012;47.562;18.414;2023-04-09T00:03:31;35.60;;;17.65;;
68192;SDS011;55012;47.562;18.414;2023-04-09T00:05:57;38.28;;;18.40;;
68192;SDS011;55012;47.562;18.414;2023-04-09T00:08:22;37.20;;;18.88;;
68192;SDS011;55012;47.562;18.414;2023-04-09T00:10:48;38.63;;;18.95;;
68192;SDS011;55012;47.562;18.414;2023-04-09T00:13:15;40.40;;;18.92;;
68192;SDS011;55012;47.562;18.414;2023-04-09T00:15:40;41.33;;;19.08;;
68192;SDS011;55012;47.562;18.414;2023-04-09T00:18:06;42.10;;;19.30;;
68192;SDS011;55012;47.562;18.414;2023-04-09T00:20:31;41.95;;;19.55;;
68192;SDS011;55012;47.562;18.414;2023-04-09T00:22:57;40.95;;;19.15;;
68192;SDS011;55012;47.562;18.414;2023-04-09T00:25:22;45.63;;;19.98;;
68192;SDS011;55012;47.562;18.414;2023-04-09T00:27:48;39.53;;;18.48;;
68192;SDS011;55012;47.562;18.414;2023-04-09T00:30:14;38.88;;;19.40;;
68192;SDS011;55012;47.562;18.414;2023-04-09T00:32:40;37.63;;;18.75;;
68192;SDS011;55012;47.562;18.414;2023-04-09T00:35:05;39.70;;;18.60;;
68192;SDS011;55012;47.562;18.414;2023-04-09T00:37:31;38.00;;;18.00;;
68192;SDS011;55012;47.562;18.414;2023-04-09T00:39:56;39.55;;;20.02;;
68192;SDS011;55012;47.562;18.414;2023-04-09T00:42:22;41.15;;;18.50;;
68192;SDS011;55012;47.562;18.414;2023-04-09T00:44:47;37.00;;;17.83;;
68192;SDS011;55012;47.562;18.414;2023-04-09T00:47:13;37.25;;;18.38;;
68192;SDS011;55012;47.562;18.414;2023-04-09T00:49:38;37.97;;;18.15;;
68192;SDS011;55012;47.562;18.414;2023-04-09T00:52:04;37.70;;;18.48;;
68192;SDS011;55012;47.562;18.414;2023-04-09T00:54:30;38.38;;;17.95;;
68192;SDS011;55012;47.562;18.414;2023-04-09T00:56:56;41.45;;;18.73;;
68192;SDS011;55012;47.562;18.414;2023-04-09T00:59:23;41.38;;;19.27;;
68192;SDS011;55012;47.562;18.414;2023-04-09T01:01:50;40.80;;;18.75;;
68192;SDS011;55012;47.562;18.414;2023-04-09T01:04:15;40.67;;;20.15;;
68192;SDS011;55012;47.562;18.414;2023-04-09T01:06:44;40.78;;;19.60;;
68192;SDS011;55012;47.562;18.414;2023-04-09T01:16:43;41.03;;;19.13;;
68192;SDS011;55012;47.562;18.414;2023-04-09T01:19:26;41.22;;;18.58;;
68192;SDS011;55012;47.562;18.414;2023-04-09T01:21:57;39.78;;;20.08;;
68192;SDS011;55012;47.562;18.414;2023-04-09T01:27:05;40.15;;;18.45;;
68192;SDS011;55012;47.562;18.414;2023-04-09T01:29:32;38.90;;;19.02;;
68192;SDS011;55012;47.562;18.414;2023-04-09T01:32:01;40.78;;;19.40;;
68192;SDS011;55012;47.562;18.414;2023-04-09T01:34:27;40.65;;;19.58;;
68192;SDS011;55012;47.562;18.414;2023-04-09T01:36:55;42.90;;;19.40;;
68192;SDS011;55012;47.562;18.414;2023-04-09T01:39:23;40.50;;;19.25;;
68192;SDS011;55012;47.562;18.414;2023-04-09T01:41:50;39.20;;;18.77;;
68192;SDS011;55012;47.562;18.414;2023-04-09T01:44:17;39.30;;;19.02;;
68192;SDS011;55012;47.562;18.414;2023-04-09T01:46:45;44.05;;;20.80;;
68192;SDS011;55012;47.562;18.414;2023-04-09T01:49:12;45.70;;;20.42;;
68192;SDS011;55012;47.562;18.414;2023-04-09T01:51:38;39.40;;;19.33;;
68192;SDS011;55012;47.562;18.414;2023-04-09T01:54:04;39.75;;;18.75;;
68192;SDS011;55012;47.562;18.414;2023-04-09T01:56:43;42.70;;;19.48;;
68192;SDS011;55012;47.562;18.414;2023-04-09T01:59:09;42.22;;;19.52;;
68192;SDS011;55012;47.562;18.414;2023-04-09T02:01:37;42.63;;;20.08;;
68192;SDS011;55012;47.562;18.414;2023-04-09T02:04:34;41.47;;;19.27;;
68192;SDS011;55012;47.562;18.414;2023-04-09T02:07:14;43.53;;;19.65;;
68192;SDS011;55012;47.562;18.414;2023-04-09T02:09:49;40.88;;;19.15;;
68192;SDS011;55012;47.562;18.414;2023-04-09T02:12:18;43.28;;;19.73;;
68192;SDS011;55012;47.562;18.414;2023-04-09T02:14:45;42.97;;;19.00;;
68192;SDS011;55012;47.562;18.414;2023-04-09T02:17:15;40.63;;;19.38;;
68192;SDS011;55012;47.562;18.414;2023-04-09T02:19:41;39.28;;;18.35;;
68192;SDS011;55012;47.562;18.414;2023-04-09T02:22:12;39.33;;;18.45;;
68192;SDS011;55012;47.562;18.414;2023-04-09T02:24:38;42.03;;;19.70;;
68192;SDS011;55012;47.562;18.414;2023-04-09T02:27:04;40.10;;;18.58;;
68192;SDS011;55012;47.562;18.414;2023-04-09T02:29:30;39.53;;;18.65;;
68192;SDS011;55012;47.562;18.414;2023-04-09T02:31:56;39.92;;;18.95;;
68192;SDS011;55012;47.562;18.414;2023-04-09T02:34:22;37.05;;;17.88;;
68192;SDS011;55012;47.562;18.414;2023-04-09T02:36:48;38.35;;;18.70;;
68192;SDS011;55012;47.562;18.414;2023-04-09T02:39:13;39.83;;;17.95;;
68192;SDS011;55012;47.562;18.414;2023-04-09T02:41:39;36.65;;;18.23;;
68192;SDS011;55012;47.562;18.414;2023-04-09T02:44:04;38.72;;;17.80;;
68192;SDS011;55012;47.562;18.414;2023-04-09T02:46:30;42.17;;;18.83;;
68192;SDS011;55012;47.562;18.414;2023-04-09T02:48:56;39.70;;;18.60;;
68192;SDS011;55012;47.562;18.414;2023-04-09T02:51:21;39.75;;;18.85;;
68192;SDS011;55012;47.562;18.414;2023-04-09T02:53:46;39.75;;;18.77;;
68192;SDS011;55012;47.562;18.414;2023-04-09T02:56:12;42.45;;;19.65;;
68192;SDS011;55012;47.562;18.414;2023-04-09T02:58:37;41.33;;;19.58;;
68192;SDS011;55012;47.562;18.414;2023-04-09T03:01:03;41.67;;;19.75;;
68192;SDS011;55012;47.562;18.414;2023-04-09T03:03:28;46.03;;;19.83;;
68192;SDS011;55012;47.562;18.414;2023-04-09T03:05:55;48.83;;;21.27;;
68192;SDS011;55012;47.562;18.414;2023-04-09T03:08:20;46.13;;;21.33;;
68192;SDS011;55012;47.562;18.414;2023-04-09T03:10:45;42.30;;;19.58;;
68192;SDS011;55012;47.562;18.414;2023-04-09T03:13:11;45.20;;;20.13;;
68192;SDS011;55012;47.562;18.414;2023-04-09T03:15:36;44.22;;;19.73;;
68192;SDS011;55012;47.562;18.414;2023-04-09T03:18:02;42.70;;;19.83;;
68192;SDS011;55012;47.562;18.414;2023-04-09T03:20:27;45.85;;;20.40;;
68192;SDS011;55012;47.562;18.414;2023-04-09T03:22:53;46.03;;;20.25;;
68192;SDS011;55012;47.562;18.414;2023-04-09T03:25:18;44.22;;;19.83;;
68192;SDS011;55012;47.562;18.414;2023-04-09T03:27:44;43.85;;;19.83;;
68192;SDS011;55012;47.562;18.414;2023-04-09T03:30:10;44.75;;;20.02;;
68192;SDS011;55012;47.562;18.414;2023-04-09T03:32:36;41.85;;;19.45;;
68192;SDS011;55012;47.562;18.414;2023-04-09T03:35:01;40.30;;;18.50;;
68192;SDS011;55012;47.562;18.414;2023-04-09T03:37:27;40.10;;;19.83;;
68192;SDS011;55012;47.562;18.414;2023-04-09T03:39:52;44.22;;;20.08;;
68192;SDS011;55012;47.562;18.414;2023-04-09T03:42:18;41.55;;;19.05;;
68192;SDS011;55012;47.562;18.414;2023-04-09T03:44:43;42.38;;;19.23;;
68192;SDS011;55012;47.562;18.414;2023-04-09T03:47:09;42.47;;;19.45;;
68192;SDS011;55012;47.562;18.414;2023-04-09T03:49:34;44.38;;;20.27;;
68192;SDS011;55012;47.562;18.414;2023-04-09T03:52:00;41.35;;;19.05;;
68192;SDS011;55012;47.562;18.414;2023-04-09T03:54:29;42.90;;;18.33;;
68192;SDS011;55012;47.562;18.414;2023-04-09T03:56:55;39.58;;;18.38;;
68192;SDS011;55012;47.562;18.414;2023-04-09T03:59:21;39.58;;;19.02;;
68192;SDS011;55012;47.562;18.414;2023-04-09T04:01:47;37.90;;;18.58;;
68192;SDS011;55012;47.562;18.414;2023-04-09T04:04:12;41.65;;;19.65;;
68192;SDS011;55012;47.562;18.414;2023-04-09T04:06:38;41.22;;;19.20;;
68192;SDS011;55012;47.562;18.414;2023-04-09T04:09:03;44.33;;;19.15;;
68192;SDS011;55012;47.562;18.414;2023-04-09T04:11:29;41.40;;;19.02;;
68192;SDS011;55012;47.562;18.414;2023-04-09T04:13:55;41.00;;;19.17;;
68192;SDS011;55012;47.562;18.414;2023-04-09T04:16:20;41.50;;;19.05;;
68192;SDS011;55012;47.562;18.414;2023-04-09T04:18:46;41.47;;;19.85;;
68192;SDS011;55012;47.562;18.414;2023-04-09T04:21:14;37.75;;;18.75;;
68192;SDS011;55012;47.562;18.414;2023-04-09T04:23:41;42.15;;;18.83;;
68192;SDS011;55012;47.562;18.414;2023-04-09T04:26:09;39.38;;;18.23;;
68192;SDS011;55012;47.562;18.414;2023-04-09T04:28:35;39.35;;;18.17;;
68192;SDS011;55012;47.562;18.414;2023-04-09T04:31:01;37.75;;;18.75;;
68192;SDS011;55012;47.562;18.414;2023-04-09T04:33:27;37.75;;;17.95;;
68192;SDS011;55012;47.562;18.414;2023-04-09T04:35:52;40.38;;;18.85;;
68192;SDS011;55012;47.562;18.414;2023-04-09T04:38:18;40.88;;;18.10;;
68192;SDS011;55012;47.562;18.414;2023-04-09T04:40:43;40.85;;;18.90;;
68192;SDS011;55012;47.562;18.414;2023-04-09T04:43:09;37.42;;;18.40;;
68192;SDS011;55012;47.562;18.414;2023-04-09T04:45:34;42.42;;;19.20;;
68192;SDS011;55012;47.562;18.414;2023-04-09T04:48:00;41.30;;;19.42;;
68192;SDS011;55012;47.562;18.414;2023-04-09T04:50:25;37.88;;;18.77;;
68192;SDS011;55012;47.562;18.414;2023-04-09T04:52:51;40.92;;;19.10;;
68192;SDS011;55012;47.562;18.414;2023-04-09T04:55:16;38.90;;;18.13;;
68192;SDS011;55012;47.562;18.414;2023-04-09T04:57:42;40.10;;;18.98;;
68192;SDS011;55012;47.562;18.414;2023-04-09T05:00:07;39.47;;;18.33;;
68192;SDS011;55012;47.562;18.414;2023-04-09T05:02:33;40.08;;;18.55;;
68192;SDS011;55012;47.562;18.414;2023-04-09T05:04:58;42.53;;;19.08;;
68192;SDS011;55012;47.562;18.414;2023-04-09T05:07:24;34.40;;;17.90;;
68192;SDS011;55012;47.562;18.414;2023-04-09T05:09:50;39.28;;;18.55;;
68192;SDS011;55012;47.562;18.414;2023-04-09T05:12:15;39.28;;;17.90;;
68192;SDS011;55012;47.562;18.414;2023-04-09T05:14:42;35.78;;;18.00;;
68192;SDS011;55012;47.562;18.414;2023-04-09T05:17:07;39.35;;;18.50;;
68192;SDS011;55012;47.562;18.414;2023-04-09T05:19:33;38.92;;;19.15;;
68192;SDS011;55012;47.562;18.414;2023-04-09T05:21:59;36.88;;;18.23;;
68192;SDS011;55012;47.562;18.414;2023-04-09T05:24:25;40.28;;;18.10;;
68192;SDS011;55012;47.562;18.414;2023-04-09T05:26:51;35.45;;;17.40;;
68192;SDS011;55012;47.562;18.414;2023-04-09T05:29:16;42.00;;;19.27;;
68192;SDS011;55012;47.562;18.414;2023-04-09T05:31:41;36.92;;;18.40;;
68192;SDS011;55012;47.562;18.414;2023-04-09T05:34:07;36.28;;;18.30;;
68192;SDS011;55012;47.562;18.414;2023-04-09T05:36:32;37.55;;;18.13;;
68192;SDS011;55012;47.562;18.414;2023-04-09T05:38:58;38.67;;;18.30;;
68192;SDS011;55012;47.562;18.414;2023-04-09T05:41:23;40.53;;;19.20;;
68192;SDS011;55012;47.562;18.414;2023-04-09T05:43:49;39.40;;;19.70;;
68192;SDS011;55012;47.562;18.414;2023-04-09T05:46:14;41.00;;;19.13;;
68192;SDS011;55012;47.562;18.414;2023-04-09T05:48:40;40.58;;;19.38;;
68192;SDS011;55012;47.562;18.414;2023-04-09T05:51:05;40.58;;;18.73;;
68192;SDS011;55012;47.562;18.414;2023-04-09T05:53:31;42.95;;;19.35;;
68192;SDS011;55012;47.562;18.414;2023-04-09T05:55:56;43.13;;;19.60;;
68192;SDS011;55012;47.562;18.414;2023-04-09T05:58:22;42.75;;;19.85;;
68192;SDS011;55012;47.562;18.414;2023-04-09T06:00:48;39.42;;;18.02;;
68192;SDS011;55012;47.562;18.414;2023-04-09T06:03:15;42.10;;;19.23;;
68192;SDS011;55012;47.562;18.414;2023-04-09T06:05:40;42.17;;;19.10;;
68192;SDS011;55012;47.562;18.414;2023-04-09T06:08:06;38.78;;;19.00;;
68192;SDS011;55012;47.562;18.414;2023-04-09T06:10:31;39.15;;;18.40;;
68192;SDS011;55012;47.562;18.414;2023-04-09T06:12:57;39.83;;;19.40;;
68192;SDS011;55012;47.562;18.414;2023-04-09T06:15:22;41.50;;;19.13;;
68192;SDS011;55012;47.562;18.414;2023-04-09T06:17:48;41.88;;;19.48;;
68192;SDS011;55012;47.562;18.414;2023-04-09T06:20:13;41.47;;;19.67;;
68192;SDS011;55012;47.562;18.414;2023-04-09T06:22:39;42.72;;;19.55;;
68192;SDS011;55012;47.562;18.414;2023-04-09T06:25:04;44.50;;;20.70;;
68192;SDS011;55012;47.562;18.414;2023-04-09T06:27:30;45.00;;;20.33;;
68192;SDS011;55012;47.562;18.414;2023-04-09T06:29:56;43.35;;;20.92;;
68192;SDS011;55012;47.562;18.414;2023-04-09T06:32:21;41.95;;;20.45;;
68192;SDS011;55012;47.562;18.414;2023-04-09T06:34:47;42.78;;;20.08;;
68192;SDS011;55012;47.562;18.414;2023-04-09T06:37:12;40.28;;;19.25;;
68192;SDS011;55012;47.562;18.414;2023-04-09T06:39:38;41.75;;;20.30;;
68192;SDS011;55012;47.562;18.414;2023-04-09T06:42:04;41.72;;;19.83;;
68192;SDS011;55012;47.562;18.414;2023-04-09T06:44:29;42.75;;;19.98;;
68192;SDS011;55012;47.562;18.414;2023-04-09T06:46:55;40.03;;;19.35;;
68192;SDS011;55012;47.562;18.414;2023-04-09T06:49:20;39.97;;;20.02;;
68192;SDS011;55012;47.562;18.414;2023-04-09T06:51:46;42.70;;;20.17;;
68192;SDS011;55012;47.562;18.414;2023-04-09T06:54:11;41.70;;;19.63;;
68192;SDS011;55012;47.562;18.414;2023-04-09T06:56:37;39.20;;;19.45;;
68192;SDS011;55012;47.562;18.414;2023-04-09T06:59:02;41.25;;;20.33;;
68192;SDS011;55012;47.562;18.414;2023-04-09T07:01:28;41.63;;;20.42;;
68192;SDS011;55012;47.562;18.414;2023-04-09T07:03:53;41.97;;;20.70;;
68192;SDS011;55012;47.562;18.414;2023-04-09T07:06:19;41.28;;;20.35;;
68192;SDS011;55012;47.562;18.414;2023-04-09T07:08:44;39.97;;;19.48;;
68192;SDS011;55012;47.562;18.414;2023-04-09T07:11:10;36.42;;;18.50;;
68192;SDS011;55012;47.562;18.414;2023-04-09T07:13:35;35.70;;;18.58;;
68192;SDS011;55012;47.562;18.414;2023-04-09T07:16:01;31.83;;;16.38;;
68192;SDS011;55012;47.562;18.414;2023-04-09T07:18:26;33.40;;;17.00;;
68192;SDS011;55012;47.562;18.414;2023-04-09T07:20:52;31.45;;;16.92;;
68192;SDS011;55012;47.562;18.414;2023-04-09T07:23:17;30.55;;;16.13;;
68192;SDS011;55012;47.562;18.414;2023-04-09T07:25:43;30.13;;;14.77;;
68192;SDS011;55012;47.562;18.414;2023-04-09T07:28:09;30.02;;;15.30;;
68192;SDS011;55012;47.562;18.414;2023-04-09T07:30:35;29.17;;;16.02;;
68192;SDS011;55012;47.562;18.414;2023-04-09T07:33:01;30.55;;;16.02;;
68192;SDS011;55012;47.562;18.414;2023-04-09T07:35:28;29.67;;;16.15;;
68192;SDS011;55012;47.562;18.414;2023-04-09T07:37:53;27.98;;;15.27;;
68192;SDS011;55012;47.562;18.414;2023-04-09T07:40:19;31.13;;;15.85;;
68192;SDS011;55012;47.562;18.414;2023-04-09T07:42:45;33.00;;;17.55;;
68192;SDS011;55012;47.562;18.414;2023-04-09T07:45:10;31.95;;;17.08;;
68192;SDS011;55012;47.562;18.414;2023-04-09T07:47:37;32.67;;;17.70;;
68192;SDS011;55012;47.562;18.414;2023-04-09T07:50:04;34.47;;;18.02;;
68192;SDS011;55012;47.562;18.414;2023-04-09T07:52:31;32.75;;;17.48;;
68192;SDS011;55012;47.562;18.414;2023-04-09T07:54:56;34.38;;;17.52;;
68192;SDS011;55012;47.562;18.414;2023-04-09T07:57:22;30.15;;;15.90;;
68192;SDS011;55012;47.562;18.414;2023-04-09T07:59:47;29.77;;;16.58;;
68192;SDS011;55012;47.562;18.414;2023-04-09T08:02:13;28.50;;;15.65;;
68192;SDS011;55012;47.562;18.414;2023-04-09T08:04:38;28.73;;;15.48;;
68192;SDS011;55012;47.562;18.414;2023-04-09T08:07:03;25.88;;;14.88;;
68192;SDS011;55012;47.562;18.414;2023-04-09T08:09:29;30.38;;;17.08;;
68192;SDS011;55012;47.562;18.414;2023-04-09T08:11:54;33.10;;;18.40;;
68192;SDS011;55012;47.562;18.414;2023-04-09T08:14:21;29.50;;;16.70;;
68192;SDS011;55012;47.562;18.414;2023-04-09T08:16:47;32.38;;;18.13;;
68192;SDS011;55012;47.562;18.414;2023-04-09T08:19:14;32.50;;;17.67;;
68192;SDS011;55012;47.562;18.414;2023-04-09T08:21:41;30.67;;;17.08;;
68192;SDS011;55012;47.562;18.414;2023-04-09T08:24:10;31.23;;;17.23;;
68192;SDS011;55012;47.562;18.414;2023-04-09T08:26:36;30.95;;;17.33;;
68192;SDS011;55012;47.562;18.414;2023-04-09T08:29:02;30.65;;;17.70;;
68192;SDS011;55012;47.562;18.414;2023-04-09T08:31:28;34.38;;;18.45;;
68192;SDS011;55012;47.562;18.414;2023-04-09T08:33:56;32.63;;;17.13;;
68192;SDS011;55012;47.562;18.414;2023-04-09T08:36:22;32.22;;;18.00;;
68192;SDS011;55012;47.562;18.414;2023-04-09T08:38:49;32.08;;;17.33;;
68192;SDS011;55012;47.562;18.414;2023-04-09T08:41:24;33.97;;;17.73;;
68192;SDS011;55012;47.562;18.414;2023-04-09T08:43:51;34.45;;;18.35;;
68192;SDS011;55012;47.562;18.414;2023-04-09T08:46:18;34.00;;;17.92;;
68192;SDS011;55012;47.562;18.414;2023-04-09T08:48:44;32.72;;;17.52;;
68192;SDS011;55012;47.562;18.414;2023-04-09T08:51:17;34.53;;;18.63;;
68192;SDS011;55012;47.562;18.414;2023-04-09T08:53:46;31.38;;;17.77;;
68192;SDS011;55012;47.562;18.414;2023-04-09T08:56:17;31.00;;;17.30;;
68192;SDS011;55012;47.562;18.414;2023-04-09T08:58:45;29.25;;;15.77;;
68192;SDS011;55012;47.562;18.414;2023-04-09T09:01:18;30.90;;;16.48;;
68192;SDS011;55012;47.562;18.414;2023-04-09T09:03:56;29.55;;;15.43;;
68192;SDS011;55012;47.562;18.414;2023-04-09T09:06:36;32.20;;;16.70;;
68192;SDS011;55012;47.562;18.414;2023-04-09T09:09:07;29.13;;;15.55;;
68192;SDS011;55012;47.562;18.414;2023-04-09T09:11:43;27.88;;;14.75;;
68192;SDS011;55012;47.562;18.414;2023-04-09T09:17:09;30.15;;;15.88;;
68192;SDS011;55012;47.562;18.414;2023-04-09T09:19:32;29.88;;;15.68;;
68192;SDS011;55012;47.562;18.414;2023-04-09T09:22:04;27.73;;;14.68;;
68192;SDS011;55012;47.562;18.414;2023-04-09T09:24:45;30.77;;;15.20;;
68192;SDS011;55012;47.562;18.414;2023-04-09T09:27:35;24.63;;;13.60;;
68192;SDS011;55012;47.562;18.414;2023-04-09T09:30:04;24.20;;;12.55;;
68192;SDS011;55012;47.562;18.414;2023-04-09T09:32:33;25.00;;;13.43;;
68192;SDS011;55012;47.562;18.414;2023-04-09T09:35:02;24.95;;;12.85;;
68192;SDS011;55012;47.562;18.414;2023-04-09T09:37:29;24.23;;;13.68;;
68192;SDS011;55012;47.562;18.414;2023-04-09T09:39:56;23.83;;;13.77;;
68192;SDS011;55012;47.562;18.414;2023-04-09T09:42:22;21.77;;;12.52;;
68192;SDS011;55012;47.562;18.414;2023-04-09T09:44:48;23.83;;;12.93;;
68192;SDS011;55012;47.562;18.414;2023-04-09T09:47:16;21.75;;;12.68;;
68192;SDS011;55012;47.562;18.414;2023-04-09T09:49:43;21.35;;;12.50;;
68192;SDS011;55012;47.562;18.414;2023-04-09T09:52:10;22.85;;;13.27;;
68192;SDS011;55012;47.562;18.414;2023-04-09T09:54:40;22.92;;;13.00;;
68192;SDS011;55012;47.562;18.414;2023-04-09T09:57:06;24.35;;;13.52;;
68192;SDS011;55012;47.562;18.414;2023-04-09T09:59:36;23.42;;;13.18;;
68192;SDS011;55012;47.562;18.414;2023-04-09T10:02:04;22.23;;;13.40;;
68192;SDS011;55012;47.562;18.414;2023-04-09T10:04:33;24.92;;;13.13;;
68192;SDS011;55012;47.562;18.414;2023-04-09T10:07:03;24.30;;;13.43;;
68192;SDS011;55012;47.562;18.414;2023-04-09T10:09:29;21.27;;;12.43;;
68192;SDS011;55012;47.562;18.414;2023-04-09T10:11:56;25.05;;;13.52;;
68192;SDS011;55012;47.562;18.414;2023-04-09T10:14:23;24.80;;;12.80;;
68192;SDS011;55012;47.562;18.414;2023-04-09T10:16:50;22.60;;;12.95;;
68192;SDS011;55012;47.562;18.414;2023-04-09T10:19:16;22.33;;;13.15;;
68192;SDS011;55012;47.562;18.414;2023-04-09T10:21:56;20.92;;;12.02;;
68192;SDS011;55012;47.562;18.414;2023-04-09T10:24:28;22.70;;;12.73;;
68192;SDS011;55012;47.562;18.414;2023-04-09T10:26:56;21.05;;;11.40;;
68192;SDS011;55012;47.562;18.414;2023-04-09T10:29:32;22.38;;;12.45;;
68192;SDS011;55012;47.562;18.414;2023-04-09T10:32:07;24.27;;;13.70;;
68192;SDS011;55012;47.562;18.414;2023-04-09T10:34:34;22.13;;;12.60;;
68192;SDS011;55012;47.562;18.414;2023-04-09T10:37:02;21.15;;;12.52;;
68192;SDS011;55012;47.562;18.414;2023-04-09T10:39:30;22.77;;;13.07;;
68192;SDS011;55012;47.562;18.414;2023-04-09T10:41:57;21.00;;;12.30;;
68192;SDS011;55012;47.562;18.414;2023-04-09T10:44:24;19.95;;;11.90;;
68192;SDS011;55012;47.562;18.414;2023-04-09T10:46:54;21.52;;;13.13;;
68192;SDS011;55012;47.562;18.414;2023-04-09T10:49:21;20.05;;;12.20;;
68192;SDS011;55012;47.562;18.414;2023-04-09T10:59:45;19.20;;;11.60;;
68192;SDS011;55012;47.562;18.414;2023-04-09T11:05:17;17.95;;;10.35;;
68192;SDS011;55012;47.562;18.414;2023-04-09T11:07:58;17.48;;;10.73;;
68192;SDS011;55012;47.562;18.414;2023-04-09T11:10:28;17.60;;;10.98;;
68192;SDS011;55012;47.562;18.414;2023-04-09T11:12:55;16.23;;;10.07;;
68192;SDS011;55012;47.562;18.414;2023-04-09T11:15:20;17.55;;;10.68;;
68192;SDS011;55012;47.562;18.414;2023-04-09T11:17:46;17.50;;;10.82;;
68192;SDS011;55012;47.562;18.414;2023-04-09T11:20:13;18.17;;;11.68;;
68192;SDS011;55012;47.562;18.414;2023-04-09T11:22:40;17.98;;;11.30;;
68192;SDS011;55012;47.562;18.414;2023-04-09T11:25:06;17.83;;;11.40;;
68192;SDS011;55012;47.562;18.414;2023-04-09T11:27:38;17.60;;;11.27;;
68192;SDS011;55012;47.562;18.414;2023-04-09T11:30:08;17.83;;;11.45;;
68192;SDS011;55012;47.562;18.414;2023-04-09T11:32:34;17.02;;;10.82;;
68192;SDS011;55012;47.562;18.414;2023-04-09T11:34:59;16.35;;;10.73;;
68192;SDS011;55012;47.562;18.414;2023-04-09T11:37:25;16.02;;;10.32;;
68192;SDS011;55012;47.562;18.414;2023-04-09T11:39:51;14.82;;;9.75;;
68192;SDS011;55012;47.562;18.414;2023-04-09T11:42:19;16.40;;;10.73;;
68192;SDS011;55012;47.562;18.414;2023-04-09T11:44:46;18.52;;;11.35;;
68192;SDS011;55012;47.562;18.414;2023-04-09T11:47:13;17.60;;;10.45;;
68192;SDS011;55012;47.562;18.414;2023-04-09T11:49:43;11.25;;;7.53;;
68192;SDS011;55012;47.562;18.414;2023-04-09T11:52:11;11.85;;;7.85;;
68192;SDS011;55012;47.562;18.414;2023-04-09T11:54:37;15.07;;;9.52;;
68192;SDS011;55012;47.562;18.414;2023-04-09T11:57:03;16.70;;;9.98;;
68192;SDS011;55012;47.562;18.414;2023-04-09T11:59:29;15.60;;;9.35;;
68192;SDS011;55012;47.562;18.414;2023-04-09T12:01:58;15.25;;;9.60;;
68192;SDS011;55012;47.562;18.414;2023-04-09T12:04:24;14.95;;;9.70;;
68192;SDS011;55012;47.562;18.414;2023-04-09T12:06:49;17.80;;;10.40;;
68192;SDS011;55012;47.562;18.414;2023-04-09T12:09:16;16.55;;;10.50;;
68192;SDS011;55012;47.562;18.414;2023-04-09T12:11:42;18.70;;;11.13;;
68192;SDS011;55012;47.562;18.414;2023-04-09T12:14:12;16.08;;;10.13;;
68192;SDS011;55012;47.562;18.414;2023-04-09T12:16:38;16.23;;;10.30;;
68192;SDS011;55012;47.562;18.414;2023-04-09T12:19:10;16.73;;;9.95;;
68192;SDS011;55012;47.562;18.414;2023-04-09T12:21:50;18.63;;;10.77;;
68192;SDS011;55012;47.562;18.414;2023-04-09T12:24:21;18.10;;;10.63;;
68192;SDS011;55012;47.562;18.414;2023-04-09T12:26:48;17.88;;;10.63;;
68192;SDS011;55012;47.562;18.414;2023-04-09T12:29:16;19.75;;;11.15;;
68192;SDS011;55012;47.562;18.414;2023-04-09T12:31:43;16.58;;;9.48;;
68192;SDS011;55012;47.562;18.414;2023-04-09T12:34:09;16.00;;;9.75;;
68192;SDS011;55012;47.562;18.414;2023-04-09T12:36:34;18.20;;;9.93;;
68192;SDS011;55012;47.562;18.414;2023-04-09T12:39:02;17.08;;;10.35;;
68192;SDS011;55012;47.562;18.414;2023-04-09T12:41:27;19.33;;;10.90;;
68192;SDS011;55012;47.562;18.414;2023-04-09T12:43:54;16.45;;;9.25;;
68192;SDS011;55012;47.562;18.414;2023-04-09T12:46:19;17.05;;;10.00;;
68192;SDS011;55012;47.562;18.414;2023-04-09T12:48:45;16.20;;;9.23;;
68192;SDS011;55012;47.562;18.414;2023-04-09T12:51:11;17.65;;;9.45;;
68192;SDS011;55012;47.562;18.414;2023-04-09T12:53:38;15.43;;;9.38;;
68192;SDS011;55012;47.562;18.414;2023-04-09T12:56:03;15.98;;;9.25;;
68192;SDS011;55012;47.562;18.414;2023-04-09T12:58:30;16.73;;;9.60;;
68192;SDS011;55012;47.562;18.414;2023-04-09T13:00:55;16.02;;;9.40;;
68192;SDS011;55012;47.562;18.414;2023-04-09T13:03:22;21.48;;;11.45;;
68192;SDS011;55012;47.562;18.414;2023-04-09T13:05:48;15.45;;;9.18;;
68192;SDS011;55012;47.562;18.414;2023-04-09T13:08:14;16.67;;;9.60;;
68192;SDS011;55012;47.562;18.414;2023-04-09T13:10:40;15.82;;;9.65;;
68192;SDS011;55012;47.562;18.414;2023-04-09T13:13:06;16.77;;;9.13;;
68192;SDS011;55012;47.562;18.414;2023-04-09T13:15:36;14.48;;;9.10;;
68192;SDS011;55012;47.562;18.414;2023-04-09T13:18:02;13.95;;;8.70;;
68192;SDS011;55012;47.562;18.414;2023-04-09T13:20:28;15.23;;;9.00;;
68192;SDS011;55012;47.562;18.414;2023-04-09T13:22:54;15.00;;;9.10;;
68192;SDS011;55012;47.562;18.414;2023-04-09T13:25:20;17.08;;;9.40;;
68192;SDS011;55012;47.562;18.414;2023-04-09T13:27:45;14.20;;;8.68;;
68192;SDS011;55012;47.562;18.414;2023-04-09T13:30:11;14.70;;;8.90;;
68192;SDS011;55012;47.562;18.414;2023-04-09T13:32:36;15.18;;;8.63;;
68192;SDS011;55012;47.562;18.414;2023-04-09T13:35:02;17.08;;;9.65;;
68192;SDS011;55012;47.562;18.414;2023-04-09T13:37:28;13.15;;;8.13;;
68192;SDS011;55012;47.562;18.414;2023-04-09T13:39:54;13.93;;;8.20;;
68192;SDS011;55012;47.562;18.414;2023-04-09T13:42:19;14.07;;;8.82;;
68192;SDS011;55012;47.562;18.414;2023-04-09T13:44:45;16.02;;;9.32;;
68192;SDS011;55012;47.562;18.414;2023-04-09T13:47:11;16.58;;;9.73;;
68192;SDS011;55012;47.562;18.414;2023-04-09T13:49:37;16.65;;;9.20;;
68192;SDS011;55012;47.562;18.414;2023-04-09T13:52:03;16.02;;;9.23;;
68192;SDS011;55012;47.562;18.414;2023-04-09T13:54:29;14.95;;;9.70;;
68192;SDS011;55012;47.562;18.414;2023-04-09T13:56:55;17.25;;;10.20;;
68192;SDS011;55012;47.562;18.414;2023-04-09T13:59:21;18.17;;;10.13;;
68192;SDS011;55012;47.562;18.414;2023-04-09T14:01:46;16.48;;;9.38;;
68192;SDS011;55012;47.562;18.414;2023-04-09T14:04:12;16.25;;;9.32;;
68192;SDS011;55012;47.562;18.414;2023-04-09T14:06:37;17.20;;;9.88;;
68192;SDS011;55012;47.562;18.414;2023-04-09T14:09:03;16.83;;;9.07;;
68192;SDS011;55012;47.562;18.414;2023-04-09T14:11:28;16.08;;;9.57;;
68192;SDS011;55012;47.562;18.414;2023-04-09T14:13:54;17.45;;;9.32;;
68192;SDS011;55012;47.562;18.414;2023-04-09T14:16:20;15.10;;;8.77;;
68192;SDS011;55012;47.562;18.414;2023-04-09T14:18:45;17.30;;;9.73;;
68192;SDS011;55012;47.562;18.414;2023-04-09T14:21:11;16.08;;;9.38;;
68192;SDS011;55012;47.562;18.414;2023-04-09T14:23:37;18.00;;;10.07;;
68192;SDS011;55012;47.562;18.414;2023-04-09T14:26:04;15.90;;;9.38;;
68192;SDS011;55012;47.562;18.414;2023-04-09T14:28:30;17.20;;;10.02;;
68192;SDS011;55012;47.562;18.414;2023-04-09T14:30:57;16.90;;;9.90;;
68192;SDS011;55012;47.562;18.414;2023-04-09T14:33:23;14.63;;;8.90;;